Time;durP1;ratioP1;P1;durP2;ratioP2;P2;SDS_P1;SDS_P2;PMS_P1;PMS_P2;Temp;Humidity;BMP_temperature;BMP_pressure;BME280_temperature;BME280_humidity;BME280_pressure;Samples;Min_cycle;Max_cycle;Signal;HPM_P1;HPM_P2
2022/03/24 00:02:25;;;;;;;84.35;44.13;;;;;;;13.12;78.95;100466.53;5100989;28;20024;-82
2022/03/24 00:04:51;;;;;;;92.63;46.42;;;;;;;13.25;78.99;100477.31;5098754;28;20040;-81
2022/03/24 00:07:17;;;;;;;88.50;44.92;;;;;;;13.25;79.24;100466.78;5102021;28;20032;-81
2022/03/24 00:09:43;;;;;;;94.22;45.60;;;;;;;13.19;79.24;100478.03;5100041;28;20024;-81
2022/03/24 00:12:10;;;;;;;87.28;45.53;;;;;;;13.04;79.71;100469.25;5101547;28;20086;-81
2022/03/24 00:14:39;;;;;;;94.80;48.38;;;;;;;13.07;80.38;100484.69;5097288;28;20410;-81
2022/03/24 00:17:04;;;;;;;89.85;47.33;;;;;;;13.10;79.89;100484.34;5099330;28;20492;-81
2022/03/24 00:19:30;;;;;;;90.10;46.60;;;;;;;13.11;80.01;100476.28;5100123;28;20051;-81
2022/03/24 00:21:57;;;;;;;88.97;46.05;;;;;;;13.02;79.52;100460.69;5076232;28;20489;-80
2022/03/24 00:24:29;;;;;;;79.28;43.85;;;;;;;13.07;78.71;100482.06;5101363;28;20039;-81
2022/03/24 00:26:55;;;;;;;79.63;40.58;;;;;;;13.07;78.53;100480.25;5100168;28;20063;-81
2022/03/24 00:29:21;;;;;;;86.57;44.55;;;;;;;13.04;78.05;100474.50;5097949;28;20113;-81
2022/03/24 00:31:46;;;;;;;76.05;42.55;;;;;;;13.08;78.25;100475.78;5103421;28;20879;-81
2022/03/24 00:34:13;;;;;;;77.55;41.17;;;;;;;12.91;78.93;100481.16;5094665;28;20032;-81
2022/03/24 00:36:38;;;;;;;85.85;40.60;;;;;;;12.69;79.54;100467.78;5096215;28;20032;-81
2022/03/24 00:39:05;;;;;;;85.57;42.63;;;;;;;12.68;79.20;100481.16;5082773;28;20061;-81
2022/03/24 00:41:32;;;;;;;79.50;41.97;;;;;;;12.66;79.14;100481.31;5099199;28;20026;-81
2022/03/24 00:43:58;;;;;;;77.40;40.42;;;;;;;12.64;79.32;100477.19;5092071;28;20092;-81
2022/03/24 00:46:24;;;;;;;82.45;40.75;;;;;;;12.63;79.11;100480.81;5097033;28;20036;-81
2022/03/24 00:48:50;;;;;;;78.45;42.33;;;;;;;12.54;78.94;100469.50;5100404;28;20081;-81
2022/03/24 00:51:18;;;;;;;76.30;39.17;;;;;;;12.54;78.79;100451.91;5101362;28;20354;-82
2022/03/24 00:53:43;;;;;;;74.57;41.42;;;;;;;12.68;78.65;100455.63;5103100;28;20036;-81
2022/03/24 00:56:11;;;;;;;77.78;40.55;;;;;;;12.76;78.64;100469.72;5098085;28;20036;-81
2022/03/24 00:58:39;;;;;;;68.72;40.00;;;;;;;12.67;78.43;100464.50;5100802;28;20436;-81
2022/03/24 01:01:08;;;;;;;74.40;38.85;;;;;;;12.83;78.18;100463.59;5098482;28;20035;-81
2022/03/24 01:03:33;;;;;;;77.57;41.33;;;;;;;12.85;78.06;100471.34;5107889;27;20046;-82
2022/03/24 01:05:59;;;;;;;76.15;40.17;;;;;;;12.80;78.32;100453.41;5102800;28;21984;-81
2022/03/24 01:08:25;;;;;;;78.65;39.17;;;;;;;12.74;78.00;100459.38;5104551;28;20024;-81
2022/03/24 01:10:51;;;;;;;67.95;37.88;;;;;;;12.74;78.22;100463.81;5108036;28;20039;-81
2022/03/24 01:13:21;;;;;;;73.82;39.25;;;;;;;12.70;78.04;100458.91;5103714;28;20047;-82
2022/03/24 01:15:50;;;;;;;79.82;40.20;;;;;;;12.72;78.09;100453.47;5104094;28;20034;-82
2022/03/24 01:18:17;;;;;;;79.18;41.42;;;;;;;12.62;78.46;100461.59;5102305;28;20123;-81
2022/03/24 01:20:43;;;;;;;84.03;41.50;;;;;;;12.80;78.35;100453.41;5099697;28;20115;-80
2022/03/24 01:23:08;;;;;;;85.40;44.72;;;;;;;12.80;78.23;100452.59;5107783;28;20433;-82
2022/03/24 01:25:36;;;;;;;83.13;43.70;;;;;;;12.84;77.80;100448.63;5098262;28;20036;-81
2022/03/24 01:28:02;;;;;;;85.68;43.83;;;;;;;12.85;77.76;100440.53;5104781;28;20047;-82
2022/03/24 01:30:27;;;;;;;89.32;43.90;;;;;;;12.96;77.69;100451.66;5111110;28;20039;-81
2022/03/24 01:32:53;;;;;;;83.15;43.85;;;;;;;12.91;77.83;100446.91;5102922;28;20119;-82
2022/03/24 01:35:18;;;;;;;79.32;42.83;;;;;;;12.86;77.92;100441.34;5098393;28;20023;-81
2022/03/24 01:37:44;;;;;;;78.35;43.63;;;;;;;12.78;77.86;100436.94;5101268;28;20076;-81
2022/03/24 01:40:13;;;;;;;82.80;41.92;;;;;;;12.88;77.77;100438.56;5101201;28;20465;-82
2022/03/24 01:42:40;;;;;;;78.78;42.15;;;;;;;12.74;78.11;100442.72;5099041;28;20030;-82
2022/03/24 01:45:08;;;;;;;75.72;40.40;;;;;;;12.53;78.96;100442.38;5100636;28;20027;-82
2022/03/24 01:47:35;;;;;;;76.20;40.60;;;;;;;12.32;79.68;100448.22;5110438;28;20042;-82
2022/03/24 01:50:03;;;;;;;70.75;38.88;;;;;;;12.08;80.73;100449.94;5106170;28;20047;-81
2022/03/24 01:52:29;;;;;;;66.90;38.20;;;;;;;11.91;81.42;100453.59;5101912;28;20447;-82
2022/03/24 01:54:57;;;;;;;79.60;43.45;;;;;;;11.78;82.37;100446.22;5102905;28;20122;-82
2022/03/24 01:57:25;;;;;;;82.65;47.42;;;;;;;11.60;83.55;100430.66;5104737;28;20038;-81
2022/03/24 01:59:53;;;;;;;95.10;49.20;;;;;;;11.62;84.47;100439.19;5099627;28;20071;-82
2022/03/24 02:02:20;;;;;;;95.53;48.25;;;;;;;11.60;84.66;100435.91;5103282;28;20134;-82
2022/03/24 02:04:46;;;;;;;94.63;48.40;;;;;;;11.66;84.63;100446.56;5100912;28;20386;-82
2022/03/24 02:07:13;;;;;;;93.72;48.38;;;;;;;11.50;84.90;100430.81;5101748;28;20086;-81
2022/03/24 02:09:39;;;;;;;88.47;47.10;;;;;;;11.45;85.49;100436.56;5102383;28;20053;-82
2022/03/24 02:12:10;;;;;;;89.82;45.63;;;;;;;11.39;86.00;100434.56;5103307;28;20056;-80
2022/03/24 02:14:36;;;;;;;95.00;50.40;;;;;;;11.33;86.49;100435.25;5102851;28;20039;-82
2022/03/24 02:17:03;;;;;;;92.63;47.45;;;;;;;11.28;87.00;100427.84;5100493;28;20031;-82
2022/03/24 02:19:28;;;;;;;92.10;49.42;;;;;;;11.32;87.25;100442.31;5102727;28;20530;-82
2022/03/24 02:21:58;;;;;;;95.90;47.17;;;;;;;11.21;87.25;100432.97;5103113;28;20077;-80
2022/03/24 02:24:25;;;;;;;99.72;47.45;;;;;;;11.17;87.43;100430.81;5101297;28;21118;-79
2022/03/24 02:26:52;;;;;;;97.13;49.08;;;;;;;11.10;87.70;100420.97;5100185;28;20420;-81
2022/03/24 02:29:19;;;;;;;95.03;46.30;;;;;;;11.14;87.76;100445.09;5099840;28;20358;-80
2022/03/24 02:31:48;;;;;;;93.35;46.95;;;;;;;11.10;87.86;100436.75;5097025;28;20035;-81
2022/03/24 02:37:01;;;;;;;90.18;48.05;;;;;;;10.99;88.49;100437.84;5105239;28;20127;-81
2022/03/24 02:39:28;;;;;;;99.15;49.60;;;;;;;11.04;89.13;100442.63;5103633;28;20028;-80
2022/03/24 02:41:55;;;;;;;99.15;48.25;;;;;;;10.94;89.46;100442.78;5093847;28;20431;-82
2022/03/24 02:44:24;;;;;;;103.05;51.95;;;;;;;11.02;89.55;100436.72;5101876;28;20040;-81
2022/03/24 02:46:53;;;;;;;103.90;51.45;;;;;;;10.96;89.50;100438.19;5100963;28;20062;-81
2022/03/24 02:49:21;;;;;;;106.55;52.03;;;;;;;11.01;90.00;100437.69;5104080;28;20044;-81
2022/03/24 02:51:47;;;;;;;100.70;49.85;;;;;;;11.00;89.64;100447.41;5102762;28;20681;-81
2022/03/24 02:54:13;;;;;;;96.20;47.97;;;;;;;11.22;89.13;100447.75;5101279;28;20032;-81
2022/03/24 02:56:42;;;;;;;101.85;47.85;;;;;;;11.33;88.51;100448.38;5101607;28;20031;-81
2022/03/24 02:59:08;;;;;;;94.10;48.58;;;;;;;11.33;88.14;100436.09;5096436;28;20039;-81
2022/03/24 03:01:34;;;;;;;89.50;45.15;;;;;;;11.26;88.43;100435.06;5102878;28;20035;-80
2022/03/24 03:04:00;;;;;;;88.85;45.25;;;;;;;11.25;88.62;100444.78;5083833;28;20051;-82
2022/03/24 03:06:33;;;;;;;95.07;45.88;;;;;;;11.16;88.73;100444.94;5081877;28;20036;-81
2022/03/24 03:09:00;;;;;;;97.35;48.28;;;;;;;11.04;89.21;100433.94;5101351;28;20036;-81
2022/03/24 03:11:26;;;;;;;84.32;44.00;;;;;;;10.95;89.24;100423.41;5101168;28;20024;-81
2022/03/24 03:13:52;;;;;;;92.13;44.85;;;;;;;10.87;89.72;100428.66;5104684;28;20400;-81
2022/03/24 03:16:18;;;;;;;93.00;47.75;;;;;;;10.89;89.77;100433.75;5102663;28;20467;-81
2022/03/24 03:18:44;;;;;;;96.43;48.42;;;;;;;10.77;89.83;100422.72;5095073;28;20089;-80
2022/03/24 03:21:11;;;;;;;96.57;47.55;;;;;;;10.89;89.92;100425.84;5103748;28;20035;-81
2022/03/24 03:23:41;;;;;;;97.97;48.13;;;;;;;10.88;89.91;100422.44;5100056;28;20104;-81
2022/03/24 03:26:07;;;;;;;104.90;48.38;;;;;;;10.81;90.47;100419.63;5101910;28;20407;-81
2022/03/24 03:28:34;;;;;;;104.25;49.97;;;;;;;10.98;89.80;100419.66;5100206;28;20054;-81
2022/03/24 03:31:00;;;;;;;101.95;48.85;;;;;;;11.19;89.21;100429.66;5100999;28;20517;-81
2022/03/24 03:33:26;;;;;;;104.00;48.47;;;;;;;11.25;88.67;100423.75;5100288;28;20027;-81
2022/03/24 03:35:52;;;;;;;100.88;47.70;;;;;;;11.31;88.59;100421.44;5099451;28;20035;-80
2022/03/24 03:38:18;;;;;;;108.03;50.58;;;;;;;11.24;88.56;100414.25;5081064;28;20083;-80
2022/03/24 03:40:47;;;;;;;96.45;46.95;;;;;;;11.35;88.26;100420.13;5094444;28;20453;-80
2022/03/24 03:43:14;;;;;;;101.63;49.45;;;;;;;11.37;88.45;100421.63;5102721;28;20111;-80
2022/03/24 03:45:42;;;;;;;103.32;49.13;;;;;;;11.29;88.15;100404.03;5098680;28;20028;-81
2022/03/24 03:48:09;;;;;;;99.63;46.75;;;;;;;11.45;87.60;100417.31;5098105;28;20027;-81
2022/03/24 03:50:36;;;;;;;98.45;48.30;;;;;;;11.55;87.04;100428.50;5104290;28;20134;-80
2022/03/24 03:53:03;;;;;;;108.60;48.25;;;;;;;11.50;86.71;100413.22;5084664;28;20036;-81
2022/03/24 03:55:30;;;;;;;99.82;46.83;;;;;;;11.68;86.28;100428.78;5101491;28;20047;-80
2022/03/24 03:57:56;;;;;;;100.32;46.13;;;;;;;11.63;86.05;100404.00;5100657;28;20035;-80
2022/03/24 04:03:06;;;;;;;98.32;45.72;;;;;;;11.66;85.50;100403.66;5100017;28;20031;-80
2022/03/24 04:05:32;;;;;;;91.03;46.33;;;;;;;11.72;85.43;100421.41;5101535;28;20028;-80
2022/03/24 04:07:58;;;;;;;97.30;46.45;;;;;;;11.76;85.02;100425.31;5103045;28;20034;-80
2022/03/24 04:10:27;;;;;;;99.03;45.88;;;;;;;11.67;85.16;100418.47;5096562;28;20111;-80
2022/03/24 04:12:56;;;;;;;97.03;46.63;;;;;;;11.53;85.40;100415.50;5102135;28;20028;-81
2022/03/24 04:15:22;;;;;;;99.20;47.53;;;;;;;11.47;85.56;100412.72;5104212;28;20039;-81
2022/03/24 04:17:49;;;;;;;86.55;43.20;;;;;;;11.42;85.19;100414.03;5100650;28;20382;-81
2022/03/24 04:20:20;;;;;;;88.80;46.15;;;;;;;11.37;85.29;100412.91;5104783;28;20039;-81
2022/03/24 04:22:48;;;;;;;92.53;46.45;;;;;;;11.38;85.20;100411.91;5099378;28;20472;-81
2022/03/24 04:25:15;;;;;;;98.28;45.40;;;;;;;11.40;85.42;100412.59;5075816;28;20027;-80
2022/03/24 04:27:41;;;;;;;85.15;42.65;;;;;;;11.39;85.21;100418.81;5083965;28;20064;-81
2022/03/24 04:30:08;;;;;;;95.50;47.03;;;;;;;11.32;85.43;100404.69;5100654;28;20035;-81
2022/03/24 04:32:34;;;;;;;90.90;44.15;;;;;;;11.27;85.21;100407.81;5100735;28;20119;-81
2022/03/24 04:35:00;;;;;;;87.97;43.88;;;;;;;11.24;85.42;100403.72;5082164;28;20191;-80
2022/03/24 04:37:29;;;;;;;97.22;44.63;;;;;;;11.42;85.43;100423.75;5101251;28;20048;-81
2022/03/24 04:39:54;;;;;;;92.30;45.85;;;;;;;11.45;85.56;100426.06;5104237;28;20453;-80
2022/03/24 04:42:21;;;;;;;91.78;43.42;;;;;;;11.47;85.17;100404.84;5099863;28;20024;-81
2022/03/24 04:44:46;;;;;;;89.00;44.20;;;;;;;11.58;85.27;100421.09;5101980;28;20024;-81
2022/03/24 04:47:14;;;;;;;95.15;45.50;;;;;;;11.80;84.76;100415.31;5103890;28;20077;-80
2022/03/24 04:49:40;;;;;;;95.43;45.90;;;;;;;11.82;84.54;100419.41;5105284;28;20478;-81
2022/03/24 04:52:07;;;;;;;95.47;44.80;;;;;;;11.90;84.08;100421.22;5104982;28;20035;-81
2022/03/24 04:54:32;;;;;;;95.78;46.53;;;;;;;11.94;84.13;100421.66;5106548;28;20392;-81
2022/03/24 04:56:58;;;;;;;92.10;43.95;;;;;;;11.87;84.27;100416.25;5104775;28;20031;-81
2022/03/24 04:59:24;;;;;;;94.78;45.78;;;;;;;11.88;84.07;100410.00;5105189;28;20035;-81
2022/03/24 05:01:49;;;;;;;95.70;46.70;;;;;;;11.98;84.03;100421.16;5104679;28;20027;-81
2022/03/24 05:04:15;;;;;;;94.93;46.13;;;;;;;11.90;83.87;100404.59;5108185;28;20388;-81
2022/03/24 05:06:42;;;;;;;97.57;45.50;;;;;;;11.96;84.08;100414.41;5106070;28;20042;-81
2022/03/24 05:09:08;;;;;;;93.28;46.70;;;;;;;11.99;83.94;100411.47;5105886;28;20028;-81
2022/03/24 05:11:34;;;;;;;93.20;44.47;;;;;;;12.00;83.95;100410.47;5087181;28;20157;-81
2022/03/24 05:14:01;;;;;;;94.30;46.10;;;;;;;12.01;83.60;100393.72;5110150;28;20027;-82
2022/03/24 05:16:28;;;;;;;97.32;47.13;;;;;;;12.09;83.33;100414.75;5106415;28;20027;-80
2022/03/24 05:18:54;;;;;;;94.43;46.53;;;;;;;12.12;82.94;100401.25;5099956;28;20048;-80
2022/03/24 05:21:20;;;;;;;106.43;48.10;;;;;;;12.12;82.98;100401.25;5103136;28;20039;-80
2022/03/24 05:23:46;;;;;;;90.75;45.50;;;;;;;12.30;83.05;100423.88;5098266;28;20363;-80
2022/03/24 05:26:12;;;;;;;103.70;45.78;;;;;;;12.28;82.52;100403.00;5104842;28;20479;-80
2022/03/24 05:28:38;;;;;;;93.43;45.67;;;;;;;12.41;82.45;100417.41;5101470;28;20111;-80
2022/03/24 05:31:05;;;;;;;96.72;45.97;;;;;;;12.37;82.29;100403.75;5107474;28;20027;-81
2022/03/24 05:33:31;;;;;;;93.28;45.35;;;;;;;12.47;82.25;100421.97;5097837;28;20035;-80
2022/03/24 05:35:57;;;;;;;90.50;45.22;;;;;;;12.44;82.42;100411.78;5102169;28;20031;-80
2022/03/24 05:38:23;;;;;;;87.78;43.65;;;;;;;12.48;81.88;100407.00;5106323;28;20023;-81
2022/03/24 05:40:49;;;;;;;93.97;45.65;;;;;;;12.50;82.24;100411.13;5101378;28;20039;-80
2022/03/24 05:43:14;;;;;;;98.70;48.42;;;;;;;12.50;81.89;100405.00;5102733;28;20019;-82
2022/03/24 05:45:40;;;;;;;92.85;47.30;;;;;;;12.53;81.88;100404.66;5103461;28;20073;-84
2022/03/24 05:48:05;;;;;;;102.18;47.25;;;;;;;12.52;81.56;100409.13;5098654;28;20051;-84
2022/03/24 05:50:31;;;;;;;92.10;46.25;;;;;;;12.56;81.44;100399.88;5088810;28;20485;-81
2022/03/24 05:52:57;;;;;;;94.80;45.60;;;;;;;12.60;81.14;100403.00;5104696;28;20092;-81
2022/03/24 05:55:25;;;;;;;103.25;47.05;;;;;;;12.59;81.00;100398.72;5105918;28;20415;-81
2022/03/24 05:57:51;;;;;;;86.85;43.72;;;;;;;12.64;80.71;100412.19;5103129;28;20082;-81
2022/03/24 06:00:17;;;;;;;98.85;45.35;;;;;;;12.46;81.32;100414.25;5105944;28;20058;-81
2022/03/24 06:02:44;;;;;;;88.80;45.35;;;;;;;12.56;81.08;100409.56;5106212;28;20020;-81
2022/03/24 06:05:12;;;;;;;92.60;44.75;;;;;;;12.49;81.34;100408.63;5085035;28;20225;-81
2022/03/24 06:07:39;;;;;;;91.75;44.50;;;;;;;12.45;81.41;100412.63;5099819;28;20027;-80
2022/03/24 06:10:06;;;;;;;86.38;43.67;;;;;;;12.40;81.26;100398.16;5103959;28;20107;-80
2022/03/24 06:12:32;;;;;;;92.88;44.47;;;;;;;12.49;81.21;100409.47;5100026;28;20031;-81
2022/03/24 06:14:58;;;;;;;87.07;42.65;;;;;;;12.50;81.08;100405.00;5091273;28;20477;-81
2022/03/24 06:17:24;;;;;;;89.22;43.58;;;;;;;12.60;81.10;100410.06;5099617;28;20113;-78
2022/03/24 06:19:52;;;;;;;97.55;46.88;;;;;;;12.54;80.81;100403.66;5101506;28;20035;-79
2022/03/24 06:22:18;;;;;;;87.13;44.90;;;;;;;12.59;80.67;100397.88;5102520;28;20080;-81
2022/03/24 06:24:43;;;;;;;84.72;43.47;;;;;;;12.60;80.76;100400.34;5102767;28;20027;-81
2022/03/24 06:27:09;;;;;;;82.13;43.03;;;;;;;12.66;81.11;100414.63;5105739;28;20504;-80
2022/03/24 06:29:35;;;;;;;93.68;44.90;;;;;;;12.69;81.25;100419.56;5105205;28;20061;-81
2022/03/24 06:32:01;;;;;;;83.90;42.95;;;;;;;12.79;80.78;100421.97;5101519;28;20374;-81
2022/03/24 06:34:28;;;;;;;90.63;45.38;;;;;;;12.78;81.21;100413.25;5100771;28;20036;-79
2022/03/24 06:36:56;;;;;;;87.07;44.55;;;;;;;12.83;81.05;100413.53;5109028;28;20030;-81
2022/03/24 06:39:22;;;;;;;90.32;45.00;;;;;;;12.80;81.29;100408.59;5100121;28;20023;-80
2022/03/24 06:41:48;;;;;;;84.43;43.97;;;;;;;12.57;81.50;100383.06;5110177;28;20404;-80
2022/03/24 06:44:15;;;;;;;86.00;45.38;;;;;;;12.65;81.22;100387.47;5101710;28;20019;-81
2022/03/24 06:46:41;;;;;;;85.85;42.90;;;;;;;12.86;81.15;100426.34;5101999;28;20043;-80
2022/03/24 06:49:07;;;;;;;79.10;41.13;;;;;;;12.81;81.39;100427.88;5112033;28;20047;-80
2022/03/24 06:51:34;;;;;;;75.55;40.88;;;;;;;12.66;82.42;100423.34;5103726;28;20028;-80
2022/03/24 06:54:01;;;;;;;73.57;39.60;;;;;;;12.61;82.75;100438.88;5105627;28;20465;-81
2022/03/24 06:56:27;;;;;;;79.75;43.70;;;;;;;12.53;83.07;100431.00;5099595;28;20031;-80
2022/03/24 06:58:52;;;;;;;83.68;42.83;;;;;;;12.53;83.34;100431.00;5100946;28;20028;-80
2022/03/24 07:01:18;;;;;;;76.57;39.72;;;;;;;12.52;83.08;100432.81;5100156;28;20050;-81
2022/03/24 07:03:44;;;;;;;78.70;39.78;;;;;;;12.37;83.30;100406.38;5085469;28;20106;-81
2022/03/24 07:06:10;;;;;;;80.82;40.47;;;;;;;12.50;83.32;100428.72;5100578;28;20394;-80
2022/03/24 07:08:36;;;;;;;75.72;42.35;;;;;;;12.41;83.49;100418.22;5101952;28;20028;-81
2022/03/24 07:11:06;;;;;;;84.45;42.13;;;;;;;12.59;83.44;100430.31;5098047;28;20488;-81
2022/03/24 07:13:32;;;;;;;82.43;42.65;;;;;;;12.64;83.13;100427.16;5104237;28;21120;-81
2022/03/24 07:15:58;;;;;;;85.45;43.03;;;;;;;12.71;82.21;100426.28;5094360;28;20427;-81
2022/03/24 07:18:23;;;;;;;76.82;41.72;;;;;;;12.78;81.67;100428.25;5095632;28;20420;-81
2022/03/24 07:20:50;;;;;;;74.40;37.50;;;;;;;12.91;81.73;100435.56;5098376;28;20024;-81
2022/03/24 07:23:16;;;;;;;85.28;42.00;;;;;;;13.00;81.68;100431.88;5086020;28;20529;-79
2022/03/24 07:25:42;;;;;;;82.18;42.00;;;;;;;13.07;81.44;100434.63;5099435;28;20444;-81
2022/03/24 07:28:10;;;;;;;88.45;43.65;;;;;;;13.11;81.23;100438.53;5096570;28;20030;-80
2022/03/24 07:30:36;;;;;;;84.95;42.53;;;;;;;13.19;80.95;100435.84;5090771;28;20064;-80
2022/03/24 07:33:02;;;;;;;85.82;41.13;;;;;;;13.22;81.28;100442.56;5097653;28;20456;-80
2022/03/24 07:35:34;;;;;;;71.28;39.25;;;;;;;13.16;82.33;100425.63;5099153;28;20039;-81
2022/03/24 07:38:00;;;;;;;71.40;38.55;;;;;;;13.18;82.75;100426.31;5099064;28;20028;-82
2022/03/24 07:40:26;;;;;;;67.95;37.53;;;;;;;13.29;83.19;100446.97;5099780;28;20028;-80
2022/03/24 07:42:53;;;;;;;75.50;40.42;;;;;;;13.31;83.79;100452.06;5097609;28;20020;-81
2022/03/24 07:45:20;;;;;;;69.65;37.53;;;;;;;13.34;83.98;100449.06;5103715;28;20020;-79
2022/03/24 07:48:06;;;;;;;82.22;42.60;;;;;;;13.40;84.61;100448.34;5093891;28;20414;-79
2022/03/24 07:50:33;;;;;;;72.93;40.08;;;;;;;13.40;85.06;100437.00;5096820;28;20040;-80
2022/03/24 07:53:18;;;;;;;86.05;43.28;;;;;;;13.48;85.59;100444.06;5087607;28;20474;-82
2022/03/24 07:55:45;;;;;;;81.72;42.63;;;;;;;13.57;85.28;100441.16;5094653;28;20038;-80
2022/03/24 07:58:14;;;;;;;82.03;42.20;;;;;;;13.70;85.03;100452.88;5097154;28;20035;-81
2022/03/24 08:00:40;;;;;;;79.47;41.35;;;;;;;13.77;85.38;100459.09;5100185;28;20381;-79
2022/03/24 08:03:10;;;;;;;71.88;38.70;;;;;;;13.91;84.79;100459.28;5092696;28;20393;-78
2022/03/24 08:05:36;;;;;;;77.60;40.70;;;;;;;13.99;84.71;100460.00;5102248;28;20427;-79
2022/03/24 08:08:04;;;;;;;81.03;43.15;;;;;;;14.07;85.10;100464.38;5098088;28;20036;-78
2022/03/24 08:10:30;;;;;;;82.55;44.38;;;;;;;14.09;85.06;100459.75;5101877;28;20509;-80
2022/03/24 08:12:55;;;;;;;85.82;46.28;;;;;;;14.18;84.89;100470.22;5101354;28;20046;-80
2022/03/24 08:15:21;;;;;;;90.97;46.92;;;;;;;14.22;84.52;100463.56;5098997;28;20031;-79
2022/03/24 08:17:48;;;;;;;82.47;45.60;;;;;;;14.25;84.49;100461.38;5097055;28;20038;-81
2022/03/24 08:20:14;;;;;;;82.20;45.88;;;;;;;14.20;84.50;100447.09;5097886;28;20521;-80
2022/03/24 08:22:40;;;;;;;88.90;47.97;;;;;;;14.38;84.40;100465.19;5097457;28;20028;-82
2022/03/24 08:25:08;;;;;;;94.03;48.53;;;;;;;14.39;84.25;100462.38;5099760;28;20115;-83
2022/03/24 08:27:36;;;;;;;85.25;46.03;;;;;;;14.56;83.71;100472.72;5101321;28;20032;-79
2022/03/24 08:30:04;;;;;;;91.85;46.38;;;;;;;14.61;84.45;100470.34;5098478;28;20123;-82
2022/03/24 08:32:30;;;;;;;82.70;44.60;;;;;;;14.47;83.74;100434.19;5100283;28;20028;-84
2022/03/24 08:34:56;;;;;;;86.50;44.38;;;;;;;14.70;82.64;100463.94;5083846;28;20039;-84
2022/03/24 08:37:21;;;;;;;96.18;50.72;;;;;;;14.72;82.87;100458.50;5098583;28;20046;-83
2022/03/24 08:39:48;;;;;;;79.72;43.72;;;;;;;14.84;83.11;100464.94;5100239;28;20043;-83
2022/03/24 08:42:13;;;;;;;81.00;44.53;;;;;;;14.96;83.79;100481.13;5090384;28;20016;-83
2022/03/24 08:44:39;;;;;;;95.28;52.97;;;;;;;14.96;83.38;100475.00;5084689;28;20106;-83
2022/03/24 08:47:06;;;;;;;85.82;47.20;;;;;;;14.98;83.05;100471.19;5109845;28;20059;-84
2022/03/24 08:49:32;;;;;;;82.43;45.22;;;;;;;15.04;82.46;100474.06;5085629;28;20390;-83
2022/03/24 08:51:58;;;;;;;81.97;44.13;;;;;;;15.07;82.18;100466.59;5111768;28;20504;-83
2022/03/24 08:54:24;;;;;;;85.45;48.67;;;;;;;15.14;80.27;100474.59;5106634;28;20034;-83
2022/03/24 08:56:51;;;;;;;88.53;49.22;;;;;;;15.26;82.05;100481.00;5108140;28;20035;-83
2022/03/24 08:59:17;;;;;;;103.90;52.00;;;;;;;15.30;82.22;100483.25;5098057;28;20112;-83
2022/03/24 09:01:43;;;;;;;87.45;47.10;;;;;;;15.31;82.17;100479.59;5097398;28;20024;-84
2022/03/24 09:04:10;;;;;;;82.43;47.45;;;;;;;15.32;81.86;100470.66;5112777;28;20491;-83
2022/03/24 09:06:39;;;;;;;85.72;48.42;;;;;;;15.41;81.81;100480.09;5100203;28;20033;-83
2022/03/24 09:09:06;;;;;;;98.47;52.53;;;;;;;15.48;82.11;100486.25;5105238;28;20047;-83
2022/03/24 09:11:32;;;;;;;84.10;48.83;;;;;;;15.57;82.07;100495.72;5096949;28;20032;-83
2022/03/24 09:13:57;;;;;;;86.28;49.42;;;;;;;15.56;82.93;100488.78;5100935;28;20040;-83
2022/03/24 09:16:23;;;;;;;86.00;50.20;;;;;;;15.66;83.43;100498.22;5101388;28;20104;-83
2022/03/24 09:18:55;;;;;;;92.82;53.22;;;;;;;15.64;83.42;100505.53;5097049;28;20088;-83
2022/03/24 09:21:22;;;;;;;97.57;53.75;;;;;;;15.68;83.54;100506.78;5097730;28;20032;-83
2022/03/24 09:23:47;;;;;;;86.95;50.53;;;;;;;15.71;83.91;100501.91;5103392;28;20024;-84
2022/03/24 09:26:13;;;;;;;94.30;52.22;;;;;;;15.67;83.82;100491.91;5100802;28;20074;-82
2022/03/24 09:28:38;;;;;;;106.30;56.10;;;;;;;15.70;84.21;100494.16;5105123;28;20039;-82
2022/03/24 09:31:04;;;;;;;103.15;56.78;;;;;;;15.65;84.16;100496.56;5098241;28;20125;-82
2022/03/24 09:33:30;;;;;;;104.72;55.53;;;;;;;15.74;84.76;100503.38;5105656;28;20034;-83
2022/03/24 09:35:56;;;;;;;96.40;54.25;;;;;;;15.76;83.95;100497.88;5101951;28;20024;-84
2022/03/24 09:38:22;;;;;;;88.88;51.13;;;;;;;15.91;84.11;100506.56;5104132;28;20031;-81
2022/03/24 09:40:50;;;;;;;99.78;55.63;;;;;;;15.82;83.51;100492.63;5102463;28;20031;-81
2022/03/24 09:43:19;;;;;;;92.75;51.90;;;;;;;15.97;83.40;100507.63;5093198;28;20051;-82
2022/03/24 09:45:47;;;;;;;95.22;53.95;;;;;;;15.96;82.78;100504.16;5109976;28;20080;-83
2022/03/24 09:48:15;;;;;;;91.32;52.13;;;;;;;16.03;83.07;100504.19;5087665;28;20028;-83
2022/03/24 09:50:44;;;;;;;101.18;55.83;;;;;;;15.91;82.22;100489.84;5105337;28;20130;-84
2022/03/24 09:53:12;;;;;;;97.75;54.97;;;;;;;16.07;82.42;100508.09;5086152;28;20082;-82
2022/03/24 09:55:38;;;;;;;96.43;54.08;;;;;;;15.95;81.15;100485.81;5089219;28;20032;-82
2022/03/24 09:58:07;;;;;;;111.90;57.95;;;;;;;15.93;79.97;100482.56;5105618;28;20031;-83
2022/03/24 10:00:34;;;;;;;95.97;56.80;;;;;;;15.89;79.11;100482.13;5106002;28;20028;-81
2022/03/24 10:03:17;;;;;;;99.32;55.67;;;;;;;15.96;79.46;100488.25;5104808;28;20027;-82
2022/03/24 10:06:07;;;;;;;93.13;52.85;;;;;;;16.24;79.10;100511.25;5102989;28;20076;-83
2022/03/24 10:08:36;;;;;;;96.57;52.80;;;;;;;16.32;79.36;100510.28;5104106;28;20027;-82
2022/03/24 10:11:04;;;;;;;100.18;54.83;;;;;;;16.31;78.98;100500.69;5099303;28;20035;-82
2022/03/24 10:13:49;;;;;;;106.65;55.65;;;;;;;16.13;78.69;100507.31;5106897;28;20086;-83
2022/03/24 10:16:33;;;;;;;103.00;54.20;;;;;;;16.39;78.88;100507.63;5099390;28;20028;-82
2022/03/24 10:19:01;;;;;;;;;;;;;;;16.44;77.88;100513.19;5107912;28;20081;-82
2022/03/24 10:21:29;;;;;;;102.43;53.88;;;;;;;16.46;78.01;100491.78;5102739;28;19958;-82
2022/03/24 10:24:00;;;;;;;110.90;55.08;;;;;;;16.55;77.86;100503.84;5100208;28;20111;-83
2022/03/24 10:26:43;;;;;;;116.00;60.55;;;;;;;16.41;76.85;100500.34;5103368;28;20024;-82
2022/03/24 10:29:13;;;;;;;109.68;55.65;;;;;;;16.56;76.95;100508.16;5101648;28;20024;-83
2022/03/24 10:31:43;;;;;;;107.82;56.60;;;;;;;16.67;77.04;100494.31;5083749;28;20438;-82
2022/03/24 10:34:12;;;;;;;101.25;54.00;;;;;;;16.84;75.50;100504.56;5107276;28;20082;-82
2022/03/24 10:36:41;;;;;;;98.47;54.05;;;;;;;16.89;76.91;100512.72;5108924;28;20392;-82
2022/03/24 10:39:08;;;;;;;97.03;52.22;;;;;;;17.05;75.86;100511.59;5107899;28;20492;-82
2022/03/24 10:41:35;;;;;;;97.03;55.50;;;;;;;17.10;75.86;100505.69;5102492;28;20540;-82
2022/03/24 10:44:08;;;;;;;121.63;57.58;;;;;;;17.17;76.01;100505.66;5097888;28;20435;-82
2022/03/24 10:46:36;;;;;;;67.82;38.75;;;;;;;17.32;75.94;100510.81;5106696;28;20104;-83
2022/03/24 10:49:23;;;;;;;110.53;55.90;;;;;;;17.35;75.99;100505.09;5099773;28;20023;-82
2022/03/24 10:51:51;;;;;;;96.88;53.17;;;;;;;17.47;75.64;100508.75;5106832;28;20092;-82
2022/03/24 10:54:46;;;;;;;92.82;50.58;;;;;;;17.58;74.74;100509.19;5091292;28;20046;-83
2022/03/24 10:57:21;;;;;;;115.00;57.85;;;;;;;17.35;76.06;100500.59;5099457;28;20462;-82
2022/03/24 10:59:54;;;;;;;118.55;60.15;;;;;;;17.51;76.21;100510.00;5099968;28;20028;-82
2022/03/24 11:02:22;;;;;;;108.88;61.03;;;;;;;17.51;76.10;100495.91;5101546;28;20074;-83
2022/03/24 11:04:48;;;;;;;99.20;55.30;;;;;;;17.60;74.93;100496.50;5107193;28;20049;-82
2022/03/24 11:07:26;;;;;;;91.05;48.92;;;;;;;17.76;74.59;100506.72;5100946;28;20465;-82
2022/03/24 11:09:52;;;;;;;89.10;49.78;;;;;;;17.79;73.64;100508.16;5084864;28;20035;-83
2022/03/24 11:12:35;;;;;;;92.95;50.65;;;;;;;17.96;74.54;100503.22;5107650;28;20037;-81
2022/03/24 11:15:03;;;;;;;91.28;51.75;;;;;;;17.97;73.02;100486.25;5100948;28;20497;-82
2022/03/24 11:17:33;;;;;;;102.57;53.75;;;;;;;18.04;72.65;100488.94;5082661;28;20058;-83